Time;durP1;ratioP1;P1;durP2;ratioP2;P2;SDS_P1;SDS_P2;PMS_P1;PMS_P2;Temp;Humidity;BMP_temperature;BMP_pressure;BME280_temperature;BME280_humidity;BME280_pressure;Samples;Min_cycle;Max_cycle;Signal;HPM_P1;HPM_P2
2024/01/24 00:00:24;;;;;;;0.00;0.00;;;;;;;5.00;100.00;96894.13;1027676;28;20046;-72
2024/01/24 00:00:55;;;;;;;0.20;0.03;;;;;;;4.95;100.00;96898.13;1031914;28;20540;-72
2024/01/24 00:01:25;;;;;;;0.00;0.00;;;;;;;5.04;100.00;96895.34;1027950;28;20031;-72
2024/01/24 00:01:56;;;;;;;0.00;0.00;;;;;;;5.08;100.00;96901.75;1027818;28;20033;-73
2024/01/24 00:02:26;;;;;;;0.00;0.00;;;;;;;5.08;100.00;96906.97;1019613;29;20509;-72
2024/01/24 00:02:57;;;;;;;0.00;0.00;;;;;;;5.13;100.00;96904.53;1019990;29;20035;-72
2024/01/24 00:03:27;;;;;;;0.00;0.00;;;;;;;5.17;100.00;96895.38;1019569;28;20522;-72
2024/01/24 00:03:58;;;;;;;0.00;0.00;;;;;;;5.19;100.00;96888.16;1019872;28;20036;-73
2024/01/24 00:04:28;;;;;;;0.00;0.00;;;;;;;5.17;100.00;96895.38;1023520;29;20024;-72
2024/01/24 00:04:59;;;;;;;0.05;0.05;;;;;;;5.13;100.00;96892.38;1023590;28;20031;-72
2024/01/24 00:05:29;;;;;;;0.00;0.00;;;;;;;5.17;100.00;96890.16;1024169;28;20035;-70
2024/01/24 00:06:00;;;;;;;0.00;0.00;;;;;;;5.22;100.00;96895.56;1027303;28;20050;-72
2024/01/24 00:06:31;;;;;;;0.10;0.10;;;;;;;5.22;100.00;96897.38;1027342;28;20031;-71
2024/01/24 00:07:01;;;;;;;0.00;0.00;;;;;;;5.18;100.00;96899.56;1024053;28;20034;-71
2024/01/24 00:07:31;;;;;;;0.05;0.05;;;;;;;5.19;100.00;96907.16;1023813;28;20082;-71
2024/01/24 00:08:02;;;;;;;0.15;0.05;;;;;;;5.19;100.00;96903.75;1023833;28;20110;-73
2024/01/24 00:08:33;;;;;;;0.00;0.00;;;;;;;5.17;100.00;96895.38;1019015;29;20028;-72
2024/01/24 00:09:04;;;;;;;0.32;0.32;;;;;;;5.16;100.00;96894.56;1019670;29;20032;-72
2024/01/24 00:09:35;;;;;;;0.10;0.10;;;;;;;5.17;100.00;96887.56;1019926;29;20032;-72
2024/01/24 00:10:06;;;;;;;0.20;0.20;;;;;;;5.15;100.00;96877.34;1023778;28;20023;-71
2024/01/24 00:10:37;;;;;;;0.00;0.00;;;;;;;5.20;100.00;96874.16;1027394;28;20023;-72
2024/01/24 00:11:07;;;;;;;0.00;0.00;;;;;;;5.25;100.00;96882.16;1028432;28;20026;-72
2024/01/24 00:11:37;;;;;;;0.00;0.00;;;;;;;5.29;100.00;96875.53;1023265;28;20027;-72
2024/01/24 00:12:08;;;;;;;0.00;0.00;;;;;;;5.21;100.00;96862.75;1019857;29;20039;-74
2024/01/24 00:12:38;;;;;;;1.17;0.73;;;;;;;5.32;100.00;96884.75;1019503;29;20407;-71
2024/01/24 00:13:09;;;;;;;0.65;0.30;;;;;;;5.31;100.00;96876.16;1016305;29;20032;-70
2024/01/24 00:13:39;;;;;;;0.00;0.00;;;;;;;5.33;100.00;96865.53;1019981;29;20015;-71
2024/01/24 00:14:10;;;;;;;0.05;0.05;;;;;;;5.34;100.00;96875.75;1015616;29;20116;-73
2024/01/24 00:14:41;;;;;;;0.00;0.00;;;;;;;5.36;100.00;96870.34;1015193;29;20507;-72
2024/01/24 00:15:11;;;;;;;0.10;0.10;;;;;;;5.39;100.00;96873.34;1023187;29;20114;-72
2024/01/24 00:15:42;;;;;;;0.00;0.00;;;;;;;5.38;100.00;96870.94;1023303;29;20534;-72
2024/01/24 00:16:12;;;;;;;0.00;0.00;;;;;;;5.28;100.00;96842.72;1023782;28;20486;-74
2024/01/24 00:16:43;;;;;;;0.00;0.00;;;;;;;5.40;100.00;96861.13;1027125;28;20027;-72
2024/01/24 00:17:13;;;;;;;0.00;0.00;;;;;;;5.37;100.00;96854.53;1027399;28;20019;-72
2024/01/24 00:17:44;;;;;;;0.00;0.00;;;;;;;5.37;100.00;96845.94;1019896;29;20016;-73
2024/01/24 00:18:14;;;;;;;4.38;1.02;;;;;;;5.38;100.00;96845.72;1024007;28;20027;-71
2024/01/24 00:18:45;;;;;;;0.00;0.00;;;;;;;5.40;100.00;96842.91;1026893;28;20023;-72
2024/01/24 00:19:15;;;;;;;0.00;0.00;;;;;;;5.32;100.00;96830.09;1023668;28;20027;-71
2024/01/24 00:19:45;;;;;;;0.00;0.00;;;;;;;5.34;100.00;96839.31;1023542;29;20027;-72
2024/01/24 00:20:16;;;;;;;0.03;0.03;;;;;;;5.32;100.00;96840.50;1023770;28;20028;-72
2024/01/24 00:20:46;;;;;;;0.00;0.00;;;;;;;5.35;100.00;96851.31;1027342;28;20579;-73
2024/01/24 00:21:17;;;;;;;0.00;0.00;;;;;;;5.36;100.00;96847.69;1027507;28;20030;-71
2024/01/24 00:21:47;;;;;;;0.00;0.00;;;;;;;5.35;100.00;96847.91;1027754;28;20038;-71
2024/01/24 00:22:18;;;;;;;0.00;0.00;;;;;;;5.43;100.00;96847.69;1023689;28;20023;-71
2024/01/24 00:22:48;;;;;;;0.00;0.00;;;;;;;5.40;100.00;96838.50;1027414;28;20038;-72
2024/01/24 00:23:19;;;;;;;1.45;1.35;;;;;;;5.41;100.00;96844.50;1031217;28;20478;-71
2024/01/24 00:23:49;;;;;;;0.03;0.03;;;;;;;5.37;100.00;96838.13;1031467;28;20035;-70
2024/01/24 00:24:20;;;;;;;0.00;0.00;;;;;;;5.38;100.00;96844.91;1035729;28;20041;-71
2024/01/24 00:24:50;;;;;;;0.00;0.00;;;;;;;5.41;100.00;96840.09;1031153;28;20038;-72
2024/01/24 00:25:20;;;;;;;0.00;0.00;;;;;;;5.41;100.00;96850.50;1030402;28;20528;-71
2024/01/24 00:25:51;;;;;;;0.00;0.00;;;;;;;5.40;100.00;96841.13;1027868;28;20061;-70
2024/01/24 00:26:22;;;;;;;0.08;0.08;;;;;;;5.37;100.00;96833.72;1027327;28;20035;-71
2024/01/24 00:26:52;;;;;;;0.03;0.03;;;;;;;5.40;100.00;96838.50;1027212;28;20289;-72
2024/01/24 00:27:23;;;;;;;0.20;0.20;;;;;;;5.41;100.00;96839.31;1023750;28;20028;-72
2024/01/24 00:27:53;;;;;;;0.00;0.00;;;;;;;5.38;100.00;96839.72;1023123;28;20062;-71
2024/01/24 00:28:26;;;;;;;0.65;0.13;;;;;;;5.38;100.00;96837.91;1023649;28;20027;-72
2024/01/24 00:28:57;;;;;;;0.00;0.00;;;;;;;5.34;100.00;96839.31;1023661;28;20527;-72
2024/01/24 00:29:27;;;;;;;0.00;0.00;;;;;;;5.41;100.00;96836.72;1027461;28;20023;-71
2024/01/24 00:29:58;;;;;;;0.00;0.00;;;;;;;5.38;100.00;96832.69;1031599;28;20026;-71
2024/01/24 00:30:28;;;;;;;0.00;0.00;;;;;;;5.34;100.00;96831.50;1028293;28;20085;-71
2024/01/24 00:30:59;;;;;;;0.00;0.00;;;;;;;5.42;100.00;96841.69;1027488;28;20019;-70
2024/01/24 00:31:29;;;;;;;0.00;0.00;;;;;;;5.42;100.00;96841.69;1023321;29;20023;-72
2024/01/24 00:32:00;;;;;;;0.00;0.00;;;;;;;5.48;100.00;96847.13;1017132;29;20123;-71
2024/01/24 00:32:30;;;;;;;0.00;0.00;;;;;;;5.47;100.00;96840.31;1019766;28;20062;-71
2024/01/24 00:33:01;;;;;;;0.00;0.00;;;;;;;5.49;100.00;96846.09;1027194;28;20031;-70
2024/01/24 00:33:32;;;;;;;0.00;0.00;;;;;;;5.54;100.00;96851.50;1031292;28;20029;-71
2024/01/24 00:34:02;;;;;;;0.00;0.00;;;;;;;5.55;100.00;96842.69;1035601;28;20033;-72
2024/01/24 00:34:33;;;;;;;0.00;0.00;;;;;;;5.52;100.00;96845.69;1035371;28;20018;-72
2024/01/24 00:35:04;;;;;;;0.00;0.00;;;;;;;5.51;100.00;96849.31;1035183;28;20030;-71
2024/01/24 00:35:34;;;;;;;0.00;0.00;;;;;;;5.54;100.00;96843.69;1035453;28;20022;-73
2024/01/24 00:36:05;;;;;;;0.65;0.20;;;;;;;5.52;100.00;96843.09;1035293;28;20025;-71
2024/01/24 00:36:35;;;;;;;0.00;0.00;;;;;;;5.50;100.00;96842.47;1035813;28;20655;-71
2024/01/24 00:37:06;;;;;;;0.00;0.00;;;;;;;5.51;100.00;96831.88;1039563;28;20022;-71
2024/01/24 00:37:36;;;;;;;0.00;0.00;;;;;;;5.51;100.00;96839.69;1031139;28;20565;-72
2024/01/24 00:38:07;;;;;;;0.00;0.00;;;;;;;5.50;100.00;96826.88;1027491;28;20015;-71
2024/01/24 00:38:37;;;;;;;0.30;0.30;;;;;;;5.52;100.00;96819.66;1022672;29;20500;-71
2024/01/24 00:39:08;;;;;;;0.00;0.00;;;;;;;5.51;100.00;96824.06;1023879;28;20054;-70
2024/01/24 00:39:38;;;;;;;0.00;0.00;;;;;;;5.49;100.00;96809.66;1030361;28;20057;-72
2024/01/24 00:40:09;;;;;;;0.00;0.00;;;;;;;5.42;100.00;96809.66;1031861;28;20030;-71
2024/01/24 00:40:40;;;;;;;2.10;0.98;;;;;;;5.49;100.00;96827.88;1032647;28;20026;-74
2024/01/24 00:41:10;;;;;;;0.00;0.00;;;;;;;5.57;100.00;96819.88;1031922;28;20027;-74
2024/01/24 00:41:41;;;;;;;0.00;0.00;;;;;;;5.56;100.00;96813.03;1029545;28;20062;-73
2024/01/24 00:42:12;;;;;;;0.00;0.00;;;;;;;5.60;100.00;96819.44;1027470;28;20259;-72
2024/01/24 00:42:43;;;;;;;0.00;0.00;;;;;;;5.58;100.00;96805.84;1025842;28;20047;-72
2024/01/24 00:43:14;;;;;;;0.00;0.00;;;;;;;5.61;100.00;96818.44;1031720;28;20030;-71
2024/01/24 00:43:44;;;;;;;0.00;0.00;;;;;;;5.58;100.00;96808.44;1035383;28;20472;-72
2024/01/24 00:44:15;;;;;;;0.00;0.00;;;;;;;5.55;100.00;96808.84;1035238;28;20030;-73
2024/01/24 00:44:45;;;;;;;0.00;0.00;;;;;;;5.60;100.00;96812.44;1034599;28;20038;-72
2024/01/24 00:45:16;;;;;;;0.00;0.00;;;;;;;5.68;100.00;96808.81;1023454;29;20042;-71
2024/01/24 00:45:47;;;;;;;0.00;0.00;;;;;;;5.71;100.00;96816.22;1023195;29;20491;-73
2024/01/24 00:46:17;;;;;;;0.00;0.00;;;;;;;5.73;100.00;96816.00;1019764;28;20044;-71
2024/01/24 00:46:47;;;;;;;0.00;0.00;;;;;;;5.70;100.00;96812.03;1027195;28;20038;-72
2024/01/24 00:47:19;;;;;;;1.20;0.57;;;;;;;5.73;100.00;96808.97;1025254;28;20093;-73
2024/01/24 00:47:49;;;;;;;0.00;0.00;;;;;;;5.76;100.00;96811.19;1027395;28;20117;-70
2024/01/24 00:48:20;;;;;;;0.00;0.00;;;;;;;5.79;100.00;96820.41;1027027;28;20502;-72
2024/01/24 00:48:50;;;;;;;0.00;0.00;;;;;;;5.82;100.00;96812.97;1026910;28;20038;-71
2024/01/24 00:49:21;;;;;;;0.00;0.00;;;;;;;5.83;100.00;96814.56;1031208;28;20027;-71
2024/01/24 00:49:52;;;;;;;0.30;0.30;;;;;;;5.83;100.00;96801.53;1026740;28;20418;-71
2024/01/24 00:50:22;;;;;;;0.00;0.00;;;;;;;5.79;100.00;96804.78;1023225;29;20102;-72
2024/01/24 00:50:53;;;;;;;0.00;0.00;;;;;;;5.77;100.00;96807.59;1023114;28;20031;-70
2024/01/24 00:51:23;;;;;;;0.00;0.00;;;;;;;5.78;100.00;96814.41;1027055;28;20034;-71
2024/01/24 00:51:54;;;;;;;0.00;0.00;;;;;;;5.90;100.00;96817.97;1023501;29;20092;-71
2024/01/24 00:52:24;;;;;;;0.00;0.00;;;;;;;5.90;100.00;96811.94;1024894;28;20522;-71
2024/01/24 00:52:55;;;;;;;0.00;0.00;;;;;;;5.88;100.00;96809.56;1027509;28;20052;-72
2024/01/24 00:53:26;;;;;;;0.00;0.00;;;;;;;5.92;100.00;96815.16;1027185;28;20081;-70
2024/01/24 00:53:57;;;;;;;0.25;0.05;;;;;;;5.84;100.00;96795.34;1027958;28;20029;-71
2024/01/24 00:54:28;;;;;;;0.10;0.10;;;;;;;5.91;100.00;96809.13;1030921;28;20034;-70
2024/01/24 00:54:58;;;;;;;0.20;0.20;;;;;;;5.88;100.00;96799.13;1023224;29;20047;-72
2024/01/24 00:55:29;;;;;;;0.00;0.00;;;;;;;5.90;100.00;96797.13;1023189;29;20031;-72
2024/01/24 00:55:59;;;;;;;0.00;0.00;;;;;;;5.78;100.00;96774.53;1026192;28;20041;-70
2024/01/24 00:56:29;;;;;;;0.00;0.00;;;;;;;5.86;100.00;96782.91;1023301;28;20027;-71
2024/01/24 00:57:00;;;;;;;0.00;0.00;;;;;;;5.93;100.00;96779.50;1023538;29;20575;-72
2024/01/24 00:57:31;;;;;;;0.10;0.10;;;;;;;5.95;100.00;96787.91;1019436;28;20024;-71
2024/01/24 00:58:02;;;;;;;0.00;0.00;;;;;;;5.90;100.00;96778.91;1027128;28;20081;-72
2024/01/24 00:58:32;;;;;;;0.00;0.00;;;;;;;5.97;100.00;96775.47;1022950;28;20118;-71
2024/01/24 00:59:03;;;;;;;0.00;0.00;;;;;;;5.96;100.00;96782.50;1027151;28;20026;-71
2024/01/24 00:59:34;;;;;;;0.00;0.00;;;;;;;5.99;100.00;96778.69;1022995;28;20110;-71
2024/01/24 01:00:06;;;;;;;0.00;0.00;;;;;;;6.08;100.00;96773.03;1019747;29;20027;-71
2024/01/24 01:00:37;;;;;;;0.00;0.00;;;;;;;6.24;100.00;96784.00;1023531;28;20034;-72
2024/01/24 01:01:07;;;;;;;0.00;0.00;;;;;;;6.29;100.00;96773.72;1031366;28;20036;-73
2024/01/24 01:01:38;;;;;;;0.00;0.00;;;;;;;6.27;100.00;96757.47;1023415;28;20024;-71
2024/01/24 01:02:08;;;;;;;0.65;0.20;;;;;;;6.25;100.00;96775.94;1023205;29;20051;-72
2024/01/24 01:02:39;;;;;;;0.00;0.00;;;;;;;6.27;100.00;96766.13;1023360;28;20030;-71
2024/01/24 01:03:09;;;;;;;0.00;0.00;;;;;;;6.26;100.00;96769.72;1019224;28;20083;-70
2024/01/24 01:03:40;;;;;;;0.00;0.00;;;;;;;6.30;100.00;96763.06;1019323;29;20043;-71
2024/01/24 01:04:10;;;;;;;0.00;0.00;;;;;;;6.31;100.00;96761.28;1023419;29;20046;-71
2024/01/24 01:04:41;;;;;;;0.38;0.38;;;;;;;6.34;100.00;96771.28;1018962;29;20063;-70
2024/01/24 01:05:11;;;;;;;0.00;0.00;;;;;;;6.33;100.00;96767.06;1023687;28;20027;-73
2024/01/24 01:05:42;;;;;;;0.00;0.00;;;;;;;6.37;100.00;96769.06;1023164;29;20494;-71
2024/01/24 01:06:12;;;;;;;0.00;0.00;;;;;;;6.30;100.00;96770.88;1023092;29;20535;-71
2024/01/24 01:06:43;;;;;;;0.00;0.00;;;;;;;6.38;100.00;96768.06;1027025;28;20083;-71
2024/01/24 01:07:13;;;;;;;0.00;0.00;;;;;;;6.40;100.00;96761.81;1027198;28;20034;-73
2024/01/24 01:07:43;;;;;;;0.03;0.03;;;;;;;6.34;100.00;96755.66;1027700;28;20038;-72
2024/01/24 01:08:14;;;;;;;0.00;0.00;;;;;;;6.36;100.00;96767.44;1029726;28;20042;-71
2024/01/24 01:08:44;;;;;;;0.00;0.00;;;;;;;6.38;100.00;96756.81;1027628;28;20038;-71
2024/01/24 01:09:15;;;;;;;0.00;0.00;;;;;;;6.31;100.00;96751.66;1025346;28;20023;-71
2024/01/24 01:09:45;;;;;;;0.00;0.00;;;;;;;6.40;100.00;96743.56;1026295;28;20022;-72
2024/01/24 01:10:16;;;;;;;0.00;0.00;;;;;;;6.45;100.00;96741.94;1023034;28;20024;-71
2024/01/24 01:10:46;;;;;;;0.00;0.00;;;;;;;6.43;100.00;96749.16;1023954;28;20027;-71
2024/01/24 01:11:17;;;;;;;0.00;0.00;;;;;;;6.48;100.00;96745.94;1027291;28;20023;-71
2024/01/24 01:11:47;;;;;;;0.00;0.00;;;;;;;6.53;100.00;96748.69;1027135;28;20045;-71
2024/01/24 01:12:18;;;;;;;0.10;0.10;;;;;;;6.53;100.00;96743.47;1027260;28;20034;-70
2024/01/24 01:12:48;;;;;;;0.00;0.00;;;;;;;6.50;100.00;96749.13;1027157;28;20038;-71
2024/01/24 01:13:19;;;;;;;0.00;0.00;;;;;;;6.42;100.00;96741.56;1026924;28;20451;-70
2024/01/24 01:13:49;;;;;;;0.38;0.38;;;;;;;6.47;100.00;96754.75;1027270;28;20030;-72
2024/01/24 01:14:19;;;;;;;0.00;0.00;;;;;;;6.51;100.00;96754.13;1025145;28;20030;-72
2024/01/24 01:14:50;;;;;;;0.00;0.00;;;;;;;6.46;100.00;96738.31;1023297;29;20093;-71
2024/01/24 01:15:20;;;;;;;0.25;0.25;;;;;;;6.48;100.00;96751.94;1019254;29;20087;-71
2024/01/24 01:15:51;;;;;;;0.00;0.00;;;;;;;6.52;100.00;96752.31;1023217;28;20308;-71
2024/01/24 01:16:21;;;;;;;0.30;0.30;;;;;;;6.55;100.00;96762.34;1023467;28;20499;-74
2024/01/24 01:16:52;;;;;;;0.00;0.00;;;;;;;6.57;100.00;96750.69;1027164;28;20105;-71
2024/01/24 01:17:22;;;;;;;0.00;0.00;;;;;;;6.62;100.00;96747.44;1027037;28;20495;-72
2024/01/24 01:17:53;;;;;;;0.20;0.20;;;;;;;6.61;100.00;96746.63;1027163;28;20026;-71
2024/01/24 01:18:23;;;;;;;0.00;0.00;;;;;;;6.61;100.00;96748.44;1026885;28;20023;-72
2024/01/24 01:18:54;;;;;;;0.00;0.00;;;;;;;6.61;100.00;96756.28;1019113;29;20042;-71
2024/01/24 01:19:24;;;;;;;0.00;0.00;;;;;;;6.70;100.00;96747.16;1022982;29;20031;-71
2024/01/24 01:19:55;;;;;;;0.00;0.00;;;;;;;6.75;100.00;96734.28;1023039;28;20047;-71
2024/01/24 01:20:25;;;;;;;0.00;0.00;;;;;;;6.74;100.00;96740.53;1027585;28;20026;-72
2024/01/24 01:20:56;;;;;;;2.80;0.15;;;;;;;6.76;100.00;96746.31;1030507;28;20037;-72
2024/01/24 01:21:26;;;;;;;0.00;0.00;;;;;;;6.80;100.00;96734.44;1022948;29;20551;-70
2024/01/24 01:21:57;;;;;;;0.00;0.00;;;;;;;6.79;100.00;96748.50;1026639;28;20042;-70
2024/01/24 01:22:27;;;;;;;0.00;0.00;;;;;;;6.79;100.00;96738.06;1027290;28;20497;-73
2024/01/24 01:22:58;;;;;;;0.20;0.10;;;;;;;6.74;100.00;96748.34;1030515;28;20022;-71
2024/01/24 01:23:29;;;;;;;0.00;0.00;;;;;;;6.73;100.00;96733.69;1030885;28;20034;-71
2024/01/24 01:23:59;;;;;;;0.00;0.00;;;;;;;6.79;100.00;96748.50;1030960;28;20023;-70
2024/01/24 01:24:29;;;;;;;0.00;0.00;;;;;;;6.78;100.00;96736.47;1031305;28;20038;-71
2024/01/24 01:25:00;;;;;;;0.00;0.00;;;;;;;6.82;100.00;96742.84;1035310;28;20030;-71
2024/01/24 01:25:30;;;;;;;0.00;0.00;;;;;;;6.80;100.00;96738.84;1035037;28;20026;-71
2024/01/24 01:26:01;;;;;;;0.10;0.10;;;;;;;6.79;100.00;96743.28;1031236;28;20060;-71
2024/01/24 01:26:32;;;;;;;0.00;0.00;;;;;;;6.77;100.00;96734.88;1026980;28;20030;-71
2024/01/24 01:27:03;;;;;;;0.00;0.00;;;;;;;6.78;100.00;96736.47;1023263;29;20035;-71
2024/01/24 01:27:34;;;;;;;0.00;0.00;;;;;;;6.80;100.00;96729.22;1023142;28;20583;-73
2024/01/24 01:28:04;;;;;;;0.00;0.00;;;;;;;6.81;100.00;96730.84;1023124;28;20031;-71
2024/01/24 01:28:35;;;;;;;0.00;0.00;;;;;;;6.78;100.00;96728.66;1028751;28;20077;-71
2024/01/24 01:29:05;;;;;;;0.00;0.00;;;;;;;6.85;100.00;96736.41;1031130;28;20026;-73
2024/01/24 01:29:36;;;;;;;0.00;0.00;;;;;;;6.85;100.00;96734.59;1025224;28;20027;-71
2024/01/24 01:30:07;;;;;;;0.00;0.00;;;;;;;6.93;100.00;96722.28;1023141;28;20515;-70
2024/01/24 01:30:37;;;;;;;0.00;0.00;;;;;;;7.02;100.00;96727.03;1019295;29;20111;-73
2024/01/24 01:31:08;;;;;;;0.00;0.00;;;;;;;7.05;100.00;96712.75;1015233;29;20043;-72
2024/01/24 01:31:38;;;;;;;0.00;0.00;;;;;;;7.05;100.00;96715.38;1019353;28;20514;-70
2024/01/24 01:32:09;;;;;;;0.30;0.30;;;;;;;7.01;100.00;96719.44;1022980;28;20062;-70
2024/01/24 01:32:40;;;;;;;0.25;0.08;;;;;;;6.97;100.00;96732.06;1027282;28;20041;-73
2024/01/24 01:33:10;;;;;;;0.00;0.00;;;;;;;6.98;100.00;96731.09;1029385;28;20026;-71
2024/01/24 01:33:41;;;;;;;0.00;0.00;;;;;;;7.00;100.00;96729.03;1031134;28;20516;-71
2024/01/24 01:34:11;;;;;;;0.00;0.00;;;;;;;7.01;100.00;96724.66;1035192;28;20272;-71
2024/01/24 01:34:41;;;;;;;0.00;0.00;;;;;;;7.01;100.00;96725.44;1030601;28;20034;-70
2024/01/24 01:35:12;;;;;;;0.00;0.00;;;;;;;7.03;100.00;96727.81;1023527;28;20031;-72
2024/01/24 01:35:42;;;;;;;0.00;0.00;;;;;;;7.00;100.00;96717.81;1027092;28;20129;-71
2024/01/24 01:36:13;;;;;;;0.70;0.10;;;;;;;7.01;100.00;96728.06;1027319;28;20027;-70
2024/01/24 01:36:43;;;;;;;0.00;0.00;;;;;;;6.92;100.00;96700.63;1031813;28;20115;-71
2024/01/24 01:37:14;;;;;;;0.22;0.22;;;;;;;6.96;100.00;96721.88;1028455;28;20041;-73
2024/01/24 01:37:44;;;;;;;0.00;0.00;;;;;;;7.05;100.00;96717.97;1019521;29;20042;-72
2024/01/24 01:38:15;;;;;;;0.13;0.13;;;;;;;7.09;100.00;96711.31;1020629;28;20526;-72
2024/01/24 01:38:45;;;;;;;0.00;0.00;;;;;;;7.13;100.00;96717.69;1016564;29;20709;-71
2024/01/24 01:39:15;;;;;;;0.00;0.00;;;;;;;7.15;100.00;96702.63;1023392;28;20527;-71
2024/01/24 01:39:46;;;;;;;0.00;0.00;;;;;;;7.19;100.00;96706.38;1027098;28;20053;-73
2024/01/24 01:40:16;;;;;;;0.00;0.00;;;;;;;7.16;100.00;96706.81;1030586;28;20026;-71
2024/01/24 01:40:47;;;;;;;0.00;0.00;;;;;;;7.12;100.00;96700.44;1023282;28;20066;-71
2024/01/24 01:41:17;;;;;;;1.55;1.45;;;;;;;7.10;100.00;96710.28;1019147;29;20098;-71
2024/01/24 01:41:48;;;;;;;0.00;0.00;;;;;;;7.07;100.00;96695.06;1018868;29;20468;-72
2024/01/24 01:42:18;;;;;;;0.08;0.08;;;;;;;7.10;100.00;96702.47;1015585;28;20097;-71
2024/01/24 01:42:49;;;;;;;0.00;0.00;;;;;;;7.06;100.00;96698.69;1025685;28;20039;-71
2024/01/24 01:43:19;;;;;;;0.00;0.00;;;;;;;6.96;100.00;96693.97;1027710;28;20737;-72
2024/01/24 01:43:50;;;;;;;0.00;0.00;;;;;;;7.04;100.00;96698.91;1028646;28;20030;-73
2024/01/24 01:44:21;;;;;;;0.00;0.00;;;;;;;7.03;100.00;96699.13;1035000;28;20097;-71
2024/01/24 01:44:51;;;;;;;0.00;0.00;;;;;;;6.97;100.00;96692.94;1027094;28;20625;-71
2024/01/24 01:45:23;;;;;;;0.00;0.00;;;;;;;7.07;100.00;96703.69;1018910;29;20028;-71
2024/01/24 01:45:53;;;;;;;0.00;0.00;;;;;;;7.05;100.00;96704.94;1023095;29;20070;-71
2024/01/24 01:46:25;;;;;;;0.00;0.00;;;;;;;7.10;100.00;96702.47;1015328;29;20020;-73
2024/01/24 01:46:55;;;;;;;0.00;0.00;;;;;;;7.06;100.00;96706.53;1015431;29;20068;-72
2024/01/24 01:47:26;;;;;;;0.00;0.00;;;;;;;7.02;100.00;96697.53;1015468;29;20032;-73
2024/01/24 01:47:57;;;;;;;0.00;0.00;;;;;;;7.05;100.00;96707.53;1015438;29;20032;-73
2024/01/24 01:48:27;;;;;;;0.00;0.00;;;;;;;7.07;100.00;96702.88;1023330;28;20817;-70
2024/01/24 01:48:58;;;;;;;0.20;0.20;;;;;;;7.13;100.00;96703.84;1021118;28;20031;-71
2024/01/24 01:49:28;;;;;;;0.00;0.00;;;;;;;7.20;100.00;96707.19;1026922;28;20486;-72
2024/01/24 01:49:59;;;;;;;0.00;0.00;;;;;;;7.17;100.00;96708.41;1022983;28;20086;-70
2024/01/24 01:50:29;;;;;;;0.00;0.00;;;;;;;7.18;100.00;96699.56;1018928;29;20028;-71
2024/01/24 01:51:00;;;;;;;0.00;0.00;;;;;;;7.17;100.00;96691.94;1015237;29;20027;-71
2024/01/24 01:51:30;;;;;;;0.00;0.00;;;;;;;7.14;100.00;96701.00;1023083;29;20418;-73
2024/01/24 01:52:00;;;;;;;0.00;0.00;;;;;;;7.24;100.00;96693.50;1021404;29;20035;-70
2024/01/24 01:52:31;;;;;;;0.00;0.00;;;;;;;7.24;100.00;96695.28;1027916;28;20082;-71
2024/01/24 01:53:02;;;;;;;0.00;0.00;;;;;;;7.30;100.00;96692.59;1023107;29;20071;-71
2024/01/24 01:53:38;;;;;;;0.05;0.05;;;;;;;7.32;100.00;96693.19;1022878;29;20106;-71
2024/01/24 01:54:08;;;;;;;0.30;0.22;;;;;;;7.31;100.00;96683.78;1022812;29;20050;-71
2024/01/24 01:54:40;;;;;;;0.00;0.00;;;;;;;7.28;100.00;96693.84;1027039;28;20481;-71
2024/01/24 01:55:10;;;;;;;0.00;0.00;;;;;;;7.25;100.00;96674.19;1026453;28;20026;-73
2024/01/24 01:55:41;;;;;;;0.52;0.52;;;;;;;7.29;100.00;96675.34;1017437;28;20124;-71
2024/01/24 01:56:12;;;;;;;0.00;0.00;;;;;;;7.33;100.00;96671.28;1018912;29;20020;-71
2024/01/24 01:56:42;;;;;;;0.00;0.00;;;;;;;7.36;100.00;96680.50;1022940;29;20058;-72
2024/01/24 01:57:14;;;;;;;0.52;0.40;;;;;;;7.35;100.00;96683.34;1023188;29;20517;-71
2024/01/24 01:57:44;;;;;;;0.00;0.00;;;;;;;7.36;100.00;96666.66;1019192;29;20048;-72
2024/01/24 01:58:15;;;;;;;1.02;0.75;;;;;;;7.35;100.00;96680.72;1015100;29;20028;-70
2024/01/24 01:58:46;;;;;;;0.00;0.00;;;;;;;7.30;100.00;96683.97;1014725;29;20028;-71
2024/01/24 01:59:16;;;;;;;0.00;0.00;;;;;;;7.32;100.00;96682.75;1022920;28;20024;-72
2024/01/24 01:59:47;;;;;;;0.00;0.00;;;;;;;7.29;100.00;96685.78;1027190;28;20058;-72
2024/01/24 02:00:20;;;;;;;0.00;0.00;;;;;;;7.28;100.00;96675.59;1026942;28;20031;-70
2024/01/24 02:00:51;;;;;;;0.00;0.00;;;;;;;7.28;100.00;96676.38;1027415;28;20034;-71
2024/01/24 02:01:21;;;;;;;0.00;0.00;;;;;;;7.26;100.00;96681.00;1022989;29;20023;-72
2024/01/24 02:01:53;;;;;;;0.00;0.00;;;;;;;7.22;100.00;96656.38;1019374;29;20047;-72
2024/01/24 02:02:24;;;;;;;0.00;0.00;;;;;;;7.41;100.00;96666.78;1027299;28;20438;-71
2024/01/24 02:02:54;;;;;;;0.00;0.00;;;;;;;7.43;100.00;96675.19;1027170;28;20027;-72
2024/01/24 02:03:25;;;;;;;0.00;0.00;;;;;;;7.38;100.00;96677.66;1022923;29;20071;-71
2024/01/24 02:03:56;;;;;;;1.55;0.88;;;;;;;7.36;100.00;96677.09;1027085;28;20026;-71
2024/01/24 02:04:27;;;;;;;0.00;0.00;;;;;;;7.35;100.00;96675.50;1027114;28;20447;-73
2024/01/24 02:04:58;;;;;;;0.00;0.00;;;;;;;7.35;100.00;96678.13;1022886;29;20035;-73
2024/01/24 02:05:28;;;;;;;0.00;0.00;;;;;;;7.33;100.00;96680.94;1027207;28;20023;-73
2024/01/24 02:06:00;;;;;;;0.00;0.00;;;;;;;7.31;100.00;96675.16;1027218;28;20038;-69
2024/01/24 02:06:30;;;;;;;0.10;0.10;;;;;;;7.33;100.00;96673.09;1026981;28;20058;-73
2024/01/24 02:07:01;;;;;;;0.00;0.00;;;;;;;7.35;100.00;96675.50;1027029;28;20027;-71
2024/01/24 02:07:31;;;;;;;0.10;0.10;;;;;;;7.33;100.00;96676.50;1018927;29;20069;-72
2024/01/24 02:08:02;;;;;;;0.00;0.00;;;;;;;7.39;100.00;96674.06;1015148;29;20032;-71
2024/01/24 02:08:34;;;;;;;0.00;0.00;;;;;;;7.36;100.00;96670.06;1022622;28;20027;-73
2024/01/24 02:09:09;;;;;;;0.00;0.00;;;;;;;7.39;100.00;96674.06;1018915;29;20039;-72
2024/01/24 02:09:40;;;;;;;0.00;0.00;;;;;;;7.46;100.00;96675.56;1015214;29;20515;-70
2024/01/24 02:10:11;;;;;;;0.00;0.00;;;;;;;7.44;100.00;96667.13;1019948;29;20022;-71
2024/01/24 02:10:42;;;;;;;0.52;0.45;;;;;;;7.39;100.00;96663.59;1022004;28;20084;-70
2024/01/24 02:11:13;;;;;;;0.00;0.00;;;;;;;7.38;100.00;96668.03;1019189;29;20063;-71
2024/01/24 02:11:44;;;;;;;0.28;0.28;;;;;;;7.42;100.00;96669.19;1022707;29;20023;-72
2024/01/24 02:12:14;;;;;;;1.65;0.63;;;;;;;7.41;100.00;96661.56;1023296;28;20016;-72
2024/01/24 02:12:45;;;;;;;0.00;0.00;;;;;;;7.42;100.00;96665.78;1023257;28;20122;-73
2024/01/24 02:13:15;;;;;;;0.20;0.20;;;;;;;7.32;100.00;96658.47;1030576;28;20022;-71
2024/01/24 02:13:45;;;;;;;0.00;0.00;;;;;;;7.40;100.00;96665.19;1027207;28;20030;-73
2024/01/24 02:14:16;;;;;;;0.00;0.00;;;;;;;7.45;100.00;96658.31;1022899;29;20012;-71
2024/01/24 02:14:47;;;;;;;0.08;0.08;;;;;;;7.53;100.00;96658.00;1019065;29;20079;-72
2024/01/24 02:15:19;;;;;;;0.00;0.00;;;;;;;7.55;100.00;96665.63;1019090;29;20083;-71
2024/01/24 02:15:49;;;;;;;0.00;0.00;;;;;;;7.51;100.00;96661.84;1019083;29;20039;-72
2024/01/24 02:16:19;;;;;;;0.00;0.00;;;;;;;7.55;100.00;96658.56;1023287;28;20427;-71
2024/01/24 02:16:50;;;;;;;0.10;0.10;;;;;;;7.59;100.00;96652.91;1030071;28;20018;-71
2024/01/24 02:17:20;;;;;;;0.00;0.00;;;;;;;7.57;100.00;96661.75;1034941;28;20018;-72
2024/01/24 02:17:51;;;;;;;0.00;0.00;;;;;;;7.57;100.00;96661.75;1034783;28;20036;-70
2024/01/24 02:18:21;;;;;;;0.28;0.20;;;;;;;7.57;100.00;96664.38;1030725;28;20510;-70
2024/01/24 02:18:53;;;;;;;0.00;0.00;;;;;;;7.57;100.00;96655.72;1030498;28;20498;-71
2024/01/24 02:19:23;;;;;;;0.10;0.10;;;;;;;7.52;100.00;96653.00;1030859;28;20034;-71
2024/01/24 02:19:54;;;;;;;0.00;0.00;;;;;;;7.58;100.00;96659.97;1022481;29;20027;-72
2024/01/24 02:20:24;;;;;;;1.17;0.75;;;;;;;7.53;100.00;96665.03;1023257;28;20031;-71
2024/01/24 02:20:54;;;;;;;0.00;0.00;;;;;;;7.58;100.00;96657.34;1022811;29;20038;-70
2024/01/24 02:21:25;;;;;;;0.00;0.00;;;;;;;7.58;100.00;96646.91;1022439;28;20038;-72
2024/01/24 02:21:55;;;;;;;0.00;0.00;;;;;;;7.64;100.00;96646.00;1024357;28;20026;-70
2024/01/24 02:22:26;;;;;;;0.00;0.00;;;;;;;7.65;100.00;96642.38;1022899;29;20502;-74
2024/01/24 02:22:57;;;;;;;0.22;0.15;;;;;;;7.65;100.00;96649.44;1014669;29;20024;-71
2024/01/24 02:23:27;;;;;;;0.00;0.00;;;;;;;7.59;100.00;96638.03;1019182;28;20028;-71
2024/01/24 02:23:59;;;;;;;0.00;0.00;;;;;;;7.64;100.00;96650.44;1023373;28;20027;-71
2024/01/24 02:24:29;;;;;;;0.00;0.00;;;;;;;7.68;100.00;96638.50;1027770;28;20707;-70